Time;durP1;ratioP1;P1;durP2;ratioP2;P2;SDS_P1;SDS_P2;PMS_P1;PMS_P2;Temp;Humidity;BMP_temperature;BMP_pressure;BME280_temperature;BME280_humidity;BME280_pressure;Samples;Min_cycle;Max_cycle;Signal;HPM_P1;HPM_P2
2021/11/22 03:54:37;;;;;;;28.65;22.98;;;5.20;99.90;;;;;;5092865;28;20223;-84
2021/11/22 03:57:04;;;;;;;27.35;18.27;;;5.00;99.90;;;;;;5096460;28;20296;-84
2021/11/22 03:59:31;;;;;;;28.92;20.63;;;5.10;99.90;;;;;;5096286;28;20205;-85
2021/11/22 04:01:58;;;;;;;27.25;16.80;;;5.00;99.90;;;;;;5096444;28;20251;-85
2021/11/22 04:04:25;;;;;;;28.10;18.55;;;5.10;99.90;;;;;;5095701;28;20201;-83
2021/11/22 04:06:52;;;;;;;24.70;16.55;;;5.10;99.90;;;;;;5095896;28;20273;-85
2021/11/22 04:09:19;;;;;;;30.23;20.90;;;5.20;99.90;;;;;;5095635;28;20233;-83
2021/11/22 04:11:47;;;;;;;24.17;19.17;;;5.30;99.90;;;;;;5095403;28;20252;-84
2021/11/22 04:14:14;;;;;;;22.75;17.05;;;5.30;99.90;;;;;;5094767;28;20211;-86
2021/11/22 04:16:41;;;;;;;27.08;18.77;;;5.50;99.90;;;;;;5094772;28;20214;-85
2021/11/22 04:19:08;;;;;;;21.77;15.82;;;5.40;99.90;;;;;;5095495;28;20792;-84
2021/11/22 04:21:35;;;;;;;21.60;14.60;;;5.30;99.90;;;;;;5095357;28;20237;-84
2021/11/22 04:24:02;;;;;;;23.88;16.33;;;5.40;99.90;;;;;;5075342;28;20193;-86
2021/11/22 04:26:29;;;;;;;25.63;16.88;;;5.30;99.90;;;;;;5075474;28;20254;-83
2021/11/22 04:28:58;;;;;;;16.55;13.05;;;5.30;99.90;;;;;;5074573;28;20245;-84
2021/11/22 04:31:24;;;;;;;20.35;14.75;;;5.40;99.90;;;;;;5074697;28;20256;-87
2021/11/22 04:33:51;;;;;;;30.02;15.23;;;5.40;99.90;;;;;;5075217;28;20273;-87
2021/11/22 04:36:18;;;;;;;22.13;15.68;;;5.40;99.90;;;;;;5074876;28;20225;-84
2021/11/22 04:38:45;;;;;;;20.05;13.65;;;5.40;99.90;;;;;;5074386;28;20267;-85
2021/11/22 04:41:12;;;;;;;21.83;14.50;;;5.30;99.90;;;;;;5074666;28;20249;-84
2021/11/22 04:43:38;;;;;;;21.80;15.55;;;5.20;99.90;;;;;;5074195;28;20777;-85
2021/11/22 04:46:07;;;;;;;22.95;15.35;;;5.10;99.90;;;;;;5071668;28;20628;-85
2021/11/22 04:48:33;;;;;;;25.17;15.52;;;5.20;99.90;;;;;;5074431;28;20276;-84
2021/11/22 04:51:00;;;;;;;27.90;17.63;;;5.30;99.90;;;;;;5074732;28;20281;-88
2021/11/22 04:53:27;;;;;;;26.60;16.17;;;5.30;99.90;;;;;;5074312;28;20285;-84
2021/11/22 04:55:54;;;;;;;27.50;16.67;;;5.20;99.90;;;;;;5073917;28;20208;-83
2021/11/22 04:58:21;;;;;;;25.20;17.20;;;5.10;99.90;;;;;;5074095;28;20212;-85
2021/11/22 05:00:47;;;;;;;22.63;16.25;;;5.20;99.90;;;;;;5073925;28;20569;-83
2021/11/22 05:03:16;;;;;;;29.25;18.50;;;5.10;99.90;;;;;;5073662;28;20213;-83
2021/11/22 05:05:42;;;;;;;26.20;18.42;;;5.20;99.90;;;;;;5072993;28;20478;-83
2021/11/22 05:08:10;;;;;;;27.20;18.77;;;5.20;99.90;;;;;;5074438;28;20213;-83
2021/11/22 05:10:39;;;;;;;26.45;16.95;;;5.40;99.90;;;;;;5074426;28;20238;-88
2021/11/22 05:13:07;;;;;;;23.98;15.70;;;5.30;99.90;;;;;;5093845;28;20203;-84
2021/11/22 05:15:35;;;;;;;23.52;17.25;;;5.40;99.90;;;;;;5093780;28;20197;-87
2021/11/22 05:18:02;;;;;;;27.95;16.73;;;5.50;99.90;;;;;;5093961;28;20205;-84
2021/11/22 05:20:30;;;;;;;25.08;17.77;;;5.50;99.90;;;;;;5093919;28;20204;-84
2021/11/22 05:22:58;;;;;;;24.70;15.23;;;5.40;99.90;;;;;;5093886;28;20279;-82
2021/11/22 05:25:24;;;;;;;24.27;16.05;;;5.30;99.90;;;;;;5094412;28;20215;-83
2021/11/22 05:27:51;;;;;;;20.98;16.77;;;5.30;99.90;;;;;;5093787;28;20209;-86
2021/11/22 05:30:22;;;;;;;29.02;17.45;;;5.30;99.90;;;;;;5093500;28;20224;-82
2021/11/22 05:32:49;;;;;;;25.58;15.88;;;5.40;99.90;;;;;;5093295;28;20244;-83
2021/11/22 05:35:16;;;;;;;17.92;13.20;;;5.50;99.90;;;;;;5092753;28;20193;-84
2021/11/22 05:37:44;;;;;;;21.75;15.10;;;5.40;99.90;;;;;;5093421;28;20195;-84
2021/11/22 05:40:12;;;;;;;21.63;17.83;;;5.40;99.90;;;;;;5092739;28;20195;-84
2021/11/22 05:42:39;;;;;;;21.02;14.32;;;5.50;99.90;;;;;;5093128;28;20235;-85
2021/11/22 05:45:06;;;;;;;18.95;14.98;;;5.50;99.90;;;;;;5093172;28;20204;-84
2021/11/22 05:47:33;;;;;;;23.27;16.05;;;5.50;99.90;;;;;;5092396;28;20214;-82
2021/11/22 05:50:04;;;;;;;22.25;14.90;;;5.50;99.90;;;;;;5092778;28;20292;-84
2021/11/22 05:52:32;;;;;;;21.65;14.27;;;5.50;99.90;;;;;;5092229;28;20238;-82
2021/11/22 05:55:00;;;;;;;21.92;16.27;;;5.40;99.90;;;;;;5092723;28;20205;-84
2021/11/22 05:57:27;;;;;;;16.92;15.13;;;5.30;99.90;;;;;;5092456;28;20268;-84
2021/11/22 05:59:54;;;;;;;18.50;14.82;;;5.50;99.90;;;;;;5092221;28;20203;-83
2021/11/22 06:02:21;;;;;;;17.65;14.75;;;5.50;99.90;;;;;;5092176;28;20229;-84
2021/11/22 06:04:48;;;;;;;21.98;14.38;;;5.50;99.90;;;;;;5092722;28;20558;-83
2021/11/22 06:07:15;;;;;;;24.77;16.77;;;5.50;99.90;;;;;;5094145;28;20260;-86
2021/11/22 06:09:41;;;;;;;20.75;17.45;;;5.40;99.90;;;;;;5096924;28;20276;-83
2021/11/22 06:12:10;;;;;;;23.88;17.20;;;5.40;99.90;;;;;;5096664;28;20297;-84
2021/11/22 06:14:37;;;;;;;22.25;14.60;;;5.30;99.90;;;;;;5094900;28;20219;-83
2021/11/22 06:17:04;;;;;;;20.20;16.02;;;5.20;99.90;;;;;;5096148;28;20199;-82
2021/11/22 06:19:31;;;;;;;17.45;15.25;;;5.30;99.90;;;;;;5099224;28;20209;-87
2021/11/22 06:22:21;;;;;;;21.73;14.95;;;5.30;99.90;;;;;;5100981;28;20244;-85
2021/11/22 06:24:48;;;;;;;20.55;14.07;;;5.20;99.90;;;;;;5100557;28;20186;-82
2021/11/22 06:27:16;;;;;;;18.58;14.85;;;5.20;99.90;;;;;;5100369;28;20252;-86
2021/11/22 06:29:43;;;;;;;29.33;16.02;;;5.10;99.90;;;;;;5099978;28;20288;-84
2021/11/22 06:32:11;;;;;;;24.02;15.13;;;4.90;99.90;;;;;;5100296;28;20235;-81
2021/11/22 06:34:39;;;;;;;23.10;17.65;;;4.90;99.90;;;;;;5101279;28;20350;-82
2021/11/22 06:37:06;;;;;;;26.35;18.23;;;4.90;99.90;;;;;;5100833;28;20252;-85
2021/11/22 06:39:32;;;;;;;22.38;15.30;;;5.00;99.90;;;;;;5099961;28;20201;-82
2021/11/22 06:41:59;;;;;;;23.73;17.02;;;5.10;99.90;;;;;;5099247;28;20222;-84
2021/11/22 06:44:28;;;;;;;25.38;18.40;;;5.20;99.90;;;;;;5099316;28;20260;-83
2021/11/22 06:46:54;;;;;;;25.85;15.35;;;5.30;99.90;;;;;;5099359;28;20199;-84
2021/11/22 06:49:21;;;;;;;24.70;17.17;;;5.10;99.90;;;;;;5099292;28;20223;-84
2021/11/22 06:51:48;;;;;;;21.38;15.13;;;5.00;99.90;;;;;;5099641;28;20284;-82
2021/11/22 06:54:15;;;;;;;25.40;17.35;;;4.90;99.90;;;;;;5099348;28;20231;-83
2021/11/22 06:56:42;;;;;;;30.17;19.33;;;4.80;99.90;;;;;;5099964;28;20209;-84
2021/11/22 06:59:09;;;;;;;24.35;17.00;;;4.80;99.90;;;;;;5099609;28;20291;-83
2021/11/22 07:01:37;;;;;;;24.13;17.20;;;4.80;99.90;;;;;;5099613;28;20268;-83
2021/11/22 07:04:04;;;;;;;29.88;18.38;;;4.70;99.90;;;;;;5099264;28;20211;-82
2021/11/22 07:06:31;;;;;;;26.88;16.80;;;4.80;99.90;;;;;;5100303;28;20245;-87
2021/11/22 07:08:58;;;;;;;25.17;17.95;;;4.90;99.90;;;;;;5100975;28;20246;-84
2021/11/22 07:11:24;;;;;;;22.95;15.65;;;4.80;99.90;;;;;;5101024;28;20237;-87
2021/11/22 07:13:51;;;;;;;27.08;16.42;;;4.80;99.90;;;;;;5099150;28;20259;-83
2021/11/22 07:16:19;;;;;;;25.52;15.85;;;4.80;99.90;;;;;;5086268;28;20217;-84
2021/11/22 07:18:48;;;;;;;27.95;17.38;;;4.90;99.90;;;;;;5092209;28;20193;-84
2021/11/22 07:21:14;;;;;;;23.05;15.95;;;4.80;99.90;;;;;;5090788;28;20300;-81
2021/11/22 07:23:41;;;;;;;26.52;16.90;;;4.90;99.90;;;;;;5092711;28;20201;-83
2021/11/22 07:26:08;;;;;;;25.10;15.77;;;5.00;99.90;;;;;;5088292;28;20217;-83
2021/11/22 07:28:35;;;;;;;25.02;19.95;;;5.00;99.90;;;;;;5079594;28;20216;-82
2021/11/22 07:31:02;;;;;;;26.95;18.25;;;4.90;99.90;;;;;;5081205;28;20231;-81
2021/11/22 07:33:28;;;;;;;22.63;14.25;;;4.90;99.90;;;;;;5082317;28;20212;-83
2021/11/22 07:35:57;;;;;;;22.40;15.43;;;4.90;99.90;;;;;;5083700;28;20211;-82
2021/11/22 07:38:24;;;;;;;21.73;14.60;;;5.00;99.90;;;;;;5082985;28;20215;-83
2021/11/22 07:40:51;;;;;;;26.88;15.05;;;5.00;99.90;;;;;;5081951;28;20231;-83
2021/11/22 07:43:18;;;;;;;23.55;16.23;;;5.10;99.90;;;;;;5082765;28;20251;-83
2021/11/22 07:45:45;;;;;;;22.77;16.35;;;5.20;99.90;;;;;;5082544;28;20255;-84
2021/11/22 07:48:14;;;;;;;24.30;17.25;;;5.20;99.90;;;;;;5082754;28;20308;-82
2021/11/22 07:50:41;;;;;;;20.33;14.77;;;5.20;99.90;;;;;;5083227;28;20263;-83
2021/11/22 07:53:09;;;;;;;21.42;15.63;;;5.30;99.90;;;;;;5086087;28;20232;-83
2021/11/22 07:55:36;;;;;;;21.45;15.57;;;5.30;99.90;;;;;;5084796;28;20212;-82
2021/11/22 07:58:03;;;;;;;20.58;14.52;;;5.40;99.90;;;;;;5068909;28;20197;-83
2021/11/22 08:00:30;;;;;;;20.33;14.25;;;5.40;99.90;;;;;;5075127;28;20319;-82
2021/11/22 08:02:57;;;;;;;24.85;15.52;;;5.30;99.90;;;;;;5067716;28;20233;-83
2021/11/22 08:05:26;;;;;;;20.48;14.07;;;5.30;99.90;;;;;;5066101;28;20196;-81
2021/11/22 08:07:55;;;;;;;17.23;11.98;;;5.40;99.90;;;;;;5068523;28;20197;-81
2021/11/22 08:10:28;;;;;;;21.42;14.77;;;5.50;99.90;;;;;;5064614;28;20744;-82
2021/11/22 08:12:57;;;;;;;19.60;12.30;;;5.50;99.90;;;;;;5060452;28;20646;-82
2021/11/22 08:15:26;;;;;;;15.15;12.27;;;5.60;99.90;;;;;;5076590;28;20209;-81
2021/11/22 08:17:54;;;;;;;17.13;12.23;;;5.50;99.90;;;;;;5076837;28;20202;-82
2021/11/22 08:20:22;;;;;;;16.15;13.30;;;5.60;99.90;;;;;;5076979;28;20540;-84
2021/11/22 08:22:50;;;;;;;21.25;13.98;;;5.60;99.90;;;;;;5077495;28;20245;-84
2021/11/22 08:25:18;;;;;;;16.30;11.10;;;5.60;99.90;;;;;;5076866;28;20207;-82
2021/11/22 08:27:46;;;;;;;15.55;11.50;;;5.60;99.90;;;;;;5078092;28;20208;-83
2021/11/22 08:30:16;;;;;;;17.00;12.48;;;5.70;99.90;;;;;;5076035;28;20576;-84
2021/11/22 08:32:44;;;;;;;15.38;11.45;;;5.70;99.90;;;;;;5077089;28;20221;-81
2021/11/22 08:35:12;;;;;;;19.83;13.13;;;5.60;99.90;;;;;;5072254;28;20209;-81
2021/11/22 08:37:40;;;;;;;15.48;11.13;;;5.50;99.90;;;;;;5067895;28;20288;-81
2021/11/22 08:40:10;;;;;;;20.38;13.93;;;5.50;99.90;;;;;;5069460;28;20194;-81
2021/11/22 08:42:37;;;;;;;14.90;11.50;;;5.50;99.90;;;;;;5074671;28;20232;-81
2021/11/22 08:45:07;;;;;;;16.02;13.60;;;5.50;99.90;;;;;;5075261;28;20204;-82
2021/11/22 08:47:34;;;;;;;16.05;12.68;;;5.60;99.90;;;;;;5078340;28;20201;-84
2021/11/22 08:50:08;;;;;;;16.55;12.25;;;5.60;99.90;;;;;;5079971;28;20282;-83
2021/11/22 08:52:34;;;;;;;15.60;12.75;;;5.60;99.90;;;;;;5078550;28;20232;-82
2021/11/22 08:55:04;;;;;;;15.48;11.27;;;5.60;99.90;;;;;;5079571;28;20205;-82
2021/11/22 08:57:31;;;;;;;16.33;12.18;;;5.60;99.90;;;;;;5080594;28;20200;-83
2021/11/22 08:59:58;;;;;;;15.20;12.43;;;5.70;99.90;;;;;;5073184;28;20283;-82
2021/11/22 09:02:26;;;;;;;17.17;11.35;;;5.70;99.90;;;;;;5067564;28;20255;-82
2021/11/22 09:04:53;;;;;;;21.35;12.40;;;5.70;99.90;;;;;;5071653;28;20196;-83
2021/11/22 09:07:20;;;;;;;11.00;9.02;;;5.80;99.90;;;;;;5068053;28;20211;-83
2021/11/22 09:09:47;;;;;;;12.80;10.95;;;5.70;99.90;;;;;;5066204;28;20202;-82
2021/11/22 09:12:13;;;;;;;18.05;11.55;;;5.70;99.90;;;;;;5071820;28;20714;-82
2021/11/22 09:14:41;;;;;;;14.25;12.75;;;5.80;99.90;;;;;;5072752;28;20193;-83
2021/11/22 09:17:09;;;;;;;17.42;12.57;;;5.70;99.90;;;;;;5075028;28;20207;-85
2021/11/22 09:19:59;;;;;;;17.85;12.00;;;5.70;99.90;;;;;;5068934;28;20202;-82
2021/11/22 09:22:26;;;;;;;15.27;11.82;;;5.80;99.90;;;;;;5060690;28;20225;-82
2021/11/22 09:24:52;;;;;;;15.82;11.27;;;5.80;99.90;;;;;;5066423;28;20197;-81
2021/11/22 09:27:19;;;;;;;14.85;12.77;;;6.00;99.90;;;;;;5066516;28;20209;-82
2021/11/22 09:29:46;;;;;;;17.73;12.15;;;6.10;99.90;;;;;;5065937;28;20200;-81
2021/11/22 09:32:13;;;;;;;17.73;11.75;;;6.20;99.90;;;;;;5071576;28;20217;-81
2021/11/22 09:34:40;;;;;;;16.67;11.20;;;6.20;99.90;;;;;;5062241;28;20252;-83
2021/11/22 09:37:08;;;;;;;17.70;11.68;;;6.30;99.90;;;;;;5064793;28;20211;-81
2021/11/22 09:39:35;;;;;;;16.55;12.63;;;6.40;99.90;;;;;;5063942;28;20201;-81
2021/11/22 09:42:01;;;;;;;12.80;11.20;;;6.40;99.90;;;;;;5066824;28;20220;-82
2021/11/22 09:44:28;;;;;;;15.48;12.93;;;6.30;99.90;;;;;;5065416;28;20204;-81
2021/11/22 09:46:55;;;;;;;18.08;12.82;;;6.40;99.90;;;;;;5062491;28;20231;-82
2021/11/22 09:49:27;;;;;;;16.27;10.50;;;6.40;99.90;;;;;;5054768;28;20215;-83
2021/11/22 09:51:55;;;;;;;18.27;10.82;;;6.40;99.90;;;;;;5055167;28;20229;-83
2021/11/22 09:54:23;;;;;;;15.00;11.73;;;6.50;99.90;;;;;;5080452;28;20209;-83
2021/11/22 09:56:52;;;;;;;11.90;10.65;;;6.60;99.90;;;;;;5079212;28;20208;-83
2021/11/22 09:59:19;;;;;;;15.07;11.60;;;6.70;99.90;;;;;;5079715;28;20212;-82
2021/11/22 10:01:52;;;;;;;13.45;10.82;;;6.70;99.90;;;;;;5079588;28;20224;-82
2021/11/22 10:04:21;;;;;;;14.23;12.05;;;6.60;99.90;;;;;;5079473;28;20208;-82
2021/11/22 10:06:50;;;;;;;14.43;11.52;;;6.60;99.90;;;;;;5078985;28;20201;-82
2021/11/22 10:09:41;;;;;;;14.20;11.02;;;6.70;99.90;;;;;;5079802;28;20227;-82
2021/11/22 10:12:14;;;;;;;14.65;10.73;;;6.70;99.90;;;;;;5080783;28;20239;-85
2021/11/22 10:14:47;;;;;;;13.05;10.35;;;6.70;99.90;;;;;;5083654;28;20217;-83
2021/11/22 10:17:34;;;;;;;11.93;10.60;;;6.60;99.90;;;;;;5082310;28;20193;-83
2021/11/22 10:20:19;;;;;;;15.63;11.30;;;6.60;99.90;;;;;;5079801;28;20201;-82
2021/11/22 10:22:52;;;;;;;17.17;9.75;;;6.60;99.90;;;;;;5071105;28;20304;-84
2021/11/22 10:25:23;;;;;;;18.50;11.95;;;6.60;99.90;;;;;;5067955;28;20241;-82
2021/11/22 10:27:51;;;;;;;15.32;10.23;;;6.60;99.90;;;;;;5069014;28;20211;-84
2021/11/22 10:30:23;;;;;;;14.93;10.40;;;6.70;99.90;;;;;;5067789;28;20197;-82
2021/11/22 10:32:54;;;;;;;16.70;11.13;;;6.80;99.90;;;;;;5075725;28;20225;-83
2021/11/22 10:35:23;;;;;;;13.95;10.88;;;7.00;99.90;;;;;;5075230;28;20232;-83
2021/11/22 10:37:58;;;;;;;11.05;8.82;;;7.00;99.90;;;;;;5081040;28;20288;-83
2021/11/22 10:40:27;;;;;;;11.05;9.38;;;7.20;99.90;;;;;;5079584;28;20199;-82
2021/11/22 10:42:54;;;;;;;11.48;10.10;;;7.30;99.90;;;;;;5079898;28;20229;-82
2021/11/22 10:45:35;;;;;;;12.98;9.95;;;7.40;99.90;;;;;;5086382;28;20204;-82
2021/11/22 10:48:25;;;;;;;9.70;8.32;;;7.50;99.90;;;;;;5098762;28;20205;-82
2021/11/22 10:51:10;;;;;;;13.13;10.23;;;7.60;99.90;;;;;;5089359;28;20245;-82
2021/11/22 10:53:40;;;;;;;12.73;9.05;;;7.70;99.90;;;;;;5069407;28;20214;-82
2021/11/22 10:56:10;;;;;;;8.95;8.05;;;7.70;99.90;;;;;;5079837;28;20204;-82
2021/11/22 10:58:56;;;;;;;10.07;8.60;;;7.60;99.90;;;;;;5085688;28;20201;-84
2021/11/22 11:01:49;;;;;;;10.20;8.30;;;7.60;99.90;;;;;;5081971;28;20225;-83
2021/11/22 11:04:34;;;;;;;8.90;8.00;;;7.50;99.90;;;;;;5077196;28;21980;-83
2021/11/22 11:07:05;;;;;;;10.05;8.80;;;7.50;99.90;;;;;;5064202;28;20336;-81
2021/11/22 11:09:44;;;;;;;11.90;10.02;;;7.50;99.90;;;;;;5080900;28;20224;-84
2021/11/22 11:12:16;;;;;;;11.43;9.35;;;7.50;99.90;;;;;;5083127;28;20300;-83
2021/11/22 11:15:14;;;;;;;15.18;10.05;;;7.50;99.90;;;;;;5084504;28;20873;-83
2021/11/22 11:17:41;;;;;;;11.88;9.82;;;7.40;99.90;;;;;;5082476;28;20212;-83
2021/11/22 11:20:12;;;;;;;12.32;10.55;;;7.40;99.90;;;;;;5081669;28;20212;-84
2021/11/22 11:22:39;;;;;;;12.75;10.77;;;7.30;99.90;;;;;;5085283;28;20221;-83
2021/11/22 11:25:07;;;;;;;12.73;11.00;;;7.30;99.90;;;;;;5086335;28;20268;-83
2021/11/22 11:27:38;;;;;;;12.50;11.20;;;7.30;99.90;;;;;;5085655;28;20219;-83
2021/11/22 11:30:09;;;;;;;12.00;10.80;;;7.30;99.90;;;;;;5085537;28;20201;-82
2021/11/22 11:32:53;;;;;;;12.75;9.95;;;7.20;99.90;;;;;;5081626;28;20243;-84
2021/11/22 11:35:22;;;;;;;9.18;8.27;;;7.20;99.90;;;;;;5078630;28;20267;-82
2021/11/22 11:38:10;;;;;;;11.45;9.20;;;7.00;99.90;;;;;;5083835;28;20749;-83
2021/11/22 11:40:57;;;;;;;12.98;10.18;;;6.80;99.90;;;;;;5066761;28;20291;-83
2021/11/22 11:44:05;;;;;;;15.38;11.07;;;6.70;99.90;;;;;;5078949;28;20205;-82
2021/11/22 11:46:46;;;;;;;10.02;9.02;;;6.70;99.90;;;;;;5065728;28;20209;-83
2021/11/22 11:49:14;;;;;;;10.07;9.07;;;6.70;99.90;;;;;;5080637;28;20205;-81
2021/11/22 11:51:43;;;;;;;13.30;9.82;;;6.70;99.90;;;;;;5079605;28;20237;-80
2021/11/22 11:54:14;;;;;;;11.57;10.30;;;6.70;99.90;;;;;;5079290;28;20211;-81
2021/11/22 11:56:51;;;;;;;9.88;7.97;;;6.60;99.90;;;;;;5079177;28;20693;-81
2021/11/22 11:59:22;;;;;;;13.88;10.13;;;6.60;99.90;;;;;;5079193;28;20212;-80
2021/11/22 12:02:05;;;;;;;13.50;9.05;;;6.50;99.90;;;;;;5079422;28;20231;-79
2021/11/22 12:05:02;;;;;;;14.93;8.50;;;6.50;99.90;;;;;;5079729;28;20597;-81
2021/11/22 12:07:36;;;;;;;11.23;9.75;;;6.60;99.90;;;;;;5078675;28;20281;-81
2021/11/22 12:10:19;;;;;;;12.70;10.00;;;6.50;99.90;;;;;;5078975;28;20201;-81
2021/11/22 12:12:51;;;;;;;11.93;9.63;;;6.40;99.90;;;;;;5078506;28;20252;-80
2021/11/22 12:15:25;;;;;;;11.20;10.02;;;6.40;99.90;;;;;;5078592;28;20201;-81
2021/11/22 12:17:55;;;;;;;14.98;11.98;;;6.40;99.90;;;;;;5078535;28;20216;-81
2021/11/22 12:20:48;;;;;;;16.13;12.05;;;6.30;99.90;;;;;;5078928;28;20627;-81
2021/11/22 12:23:19;;;;;;;12.57;10.40;;;6.30;99.90;;;;;;5078456;28;20212;-81
2021/11/22 12:25:48;;;;;;;11.50;9.80;;;6.30;99.90;;;;;;5078712;28;20205;-81
2021/11/22 12:28:43;;;;;;;12.80;9.85;;;6.30;99.90;;;;;;5078864;28;20212;-81
2021/11/22 12:31:14;;;;;;;12.32;9.50;;;6.30;99.90;;;;;;5079083;28;20621;-80
2021/11/22 12:33:44;;;;;;;10.38;9.27;;;6.20;99.90;;;;;;5078820;28;20295;-81
2021/11/22 12:36:30;;;;;;;10.25;8.60;;;6.20;99.90;;;;;;5086336;28;20216;-80
2021/11/22 12:39:07;;;;;;;13.45;9.10;;;6.20;99.90;;;;;;5088850;28;20208;-80
2021/11/22 12:41:37;;;;;;;10.50;8.35;;;6.10;99.90;;;;;;5088830;28;20235;-80
2021/11/22 12:44:08;;;;;;;10.45;9.35;;;6.20;99.90;;;;;;5082698;28;20209;-81
2021/11/22 12:46:49;;;;;;;13.77;9.00;;;6.20;99.90;;;;;;5078855;28;20215;-80
2021/11/22 12:49:35;;;;;;;9.18;8.07;;;6.30;99.90;;;;;;5078010;28;20239;-81
2021/11/22 12:52:23;;;;;;;11.32;8.88;;;6.40;99.90;;;;;;5077871;28;20236;-81
2021/11/22 12:54:57;;;;;;;10.02;9.00;;;6.40;99.90;;;;;;5078225;28;20288;-81
2021/11/22 12:57:28;;;;;;;11.32;8.93;;;6.30;99.90;;;;;;5078200;28;20590;-81
2021/11/22 13:00:18;;;;;;;15.82;9.10;;;6.30;99.90;;;;;;5077841;28;20205;-81
2021/11/22 13:02:48;;;;;;;18.92;9.88;;;6.50;99.90;;;;;;5077714;28;20737;-81
2021/11/22 13:05:45;;;;;;;10.50;9.45;;;6.60;99.90;;;;;;5078140;28;20205;-81
2021/11/22 13:08:43;;;;;;;13.43;8.45;;;6.70;99.90;;;;;;5078387;28;20220;-81
2021/11/22 13:11:22;;;;;;;8.88;7.15;;;6.80;99.90;;;;;;5077672;28;20225;-81
2021/11/22 13:13:56;;;;;;;9.32;7.40;;;6.70;99.90;;;;;;5078118;28;20200;-81
2021/11/22 13:16:24;;;;;;;7.72;7.10;;;6.70;99.90;;;;;;5077681;28;20704;-81
2021/11/22 13:18:55;;;;;;;9.30;8.35;;;6.80;99.90;;;;;;5078268;28;20228;-81
2021/11/22 13:21:24;;;;;;;10.98;7.28;;;6.80;99.90;;;;;;5078399;28;20709;-79
2021/11/22 13:23:54;;;;;;;8.70;7.88;;;6.90;99.90;;;;;;5077773;28;20609;-81
2021/11/22 13:26:24;;;;;;;9.52;7.85;;;6.70;99.90;;;;;;5077791;28;20564;-82
2021/11/22 13:28:53;;;;;;;10.25;9.32;;;6.70;99.90;;;;;;5077719;28;20205;-81
2021/11/22 13:31:21;;;;;;;11.40;8.35;;;6.70;99.90;;;;;;5077493;28;20701;-82
2021/11/22 13:33:50;;;;;;;8.93;7.60;;;6.70;99.90;;;;;;5077434;28;20209;-82
2021/11/22 13:36:26;;;;;;;9.50;7.32;;;6.70;99.90;;;;;;5077716;28;20207;-82
2021/11/22 13:38:53;;;;;;;8.65;7.75;;;6.70;99.90;;;;;;5078005;28;20208;-82
2021/11/22 13:41:21;;;;;;;8.77;7.55;;;6.70;99.90;;;;;;5077850;28;20236;-81
2021/11/22 13:43:54;;;;;;;7.32;6.68;;;6.70;99.90;;;;;;5077429;28;20208;-82
2021/11/22 13:46:20;;;;;;;9.10;6.97;;;6.60;99.90;;;;;;5077494;28;20205;-82
2021/11/22 13:48:53;;;;;;;8.00;7.20;;;6.70;99.90;;;;;;5077233;28;20208;-82
2021/11/22 13:51:24;;;;;;;9.02;6.65;;;6.60;99.90;;;;;;5077110;28;20232;-81
2021/11/22 13:53:53;;;;;;;8.45;7.45;;;6.50;99.90;;;;;;5077000;28;20219;-81
2021/11/22 13:56:21;;;;;;;8.48;7.55;;;6.60;99.90;;;;;;5080033;28;20201;-81
2021/11/22 13:58:49;;;;;;;9.00;7.90;;;6.60;99.90;;;;;;5084257;28;20205;-78
2021/11/22 14:01:15;;;;;;;10.07;9.02;;;6.60;99.90;;;;;;5083137;28;20634;-80
2021/11/22 14:03:43;;;;;;;10.57;9.00;;;6.60;99.90;;;;;;5084629;28;20205;-79
2021/11/22 14:06:10;;;;;;;8.77;7.57;;;6.60;99.90;;;;;;5083835;28;20212;-81
2021/11/22 14:08:38;;;;;;;11.50;8.70;;;6.60;99.90;;;;;;5083475;28;20209;-79
2021/11/22 14:11:19;;;;;;;8.93;7.60;;;6.60;99.90;;;;;;5077201;28;20225;-81
2021/11/22 14:13:46;;;;;;;12.43;8.82;;;6.50;99.90;;;;;;5077098;28;20205;-80
2021/11/22 14:16:17;;;;;;;9.13;8.32;;;6.50;99.90;;;;;;5076872;28;20201;-81
2021/11/22 14:18:44;;;;;;;7.65;6.95;;;6.50;99.90;;;;;;5077012;28;20296;-81
2021/11/22 14:21:11;;;;;;;9.65;8.18;;;6.40;99.90;;;;;;5078668;28;20320;-80
2021/11/22 14:23:39;;;;;;;9.88;8.85;;;6.50;99.90;;;;;;5078124;28;20201;-81
2021/11/22 14:26:08;;;;;;;9.43;8.43;;;6.40;99.90;;;;;;5077375;28;20237;-80
2021/11/22 14:28:40;;;;;;;9.73;7.35;;;6.50;99.90;;;;;;5078322;28;20209;-80
2021/11/22 14:31:07;;;;;;;8.00;6.72;;;6.30;99.90;;;;;;5076978;28;20221;-83
2021/11/22 14:33:37;;;;;;;10.75;7.55;;;6.30;99.90;;;;;;5078108;28;20233;-79
2021/11/22 14:36:07;;;;;;;11.05;8.82;;;6.30;99.90;;;;;;5077382;28;20205;-80
2021/11/22 14:38:35;;;;;;;8.55;7.68;;;6.20;99.90;;;;;;5079060;28;20220;-80
2021/11/22 14:41:19;;;;;;;9.93;8.27;;;6.10;99.90;;;;;;5080234;28;20296;-80
2021/11/22 14:43:48;;;;;;;10.43;9.30;;;6.10;99.90;;;;;;5079600;28;20205;-81
2021/11/22 14:46:18;;;;;;;10.93;7.72;;;6.10;99.90;;;;;;5080332;28;20284;-83
2021/11/22 14:48:45;;;;;;;8.55;7.80;;;6.10;99.90;;;;;;5080808;28;20580;-81
2021/11/22 14:51:14;;;;;;;8.90;7.38;;;6.20;99.90;;;;;;5079959;28;20229;-81
2021/11/22 14:53:42;;;;;;;9.48;8.23;;;6.30;99.90;;;;;;5079912;28;20232;-80
2021/11/22 14:56:21;;;;;;;9.10;8.10;;;6.40;99.90;;;;;;5080251;28;20258;-81
2021/11/22 14:58:49;;;;;;;8.50;7.70;;;6.40;99.90;;;;;;5080806;28;20227;-80
2021/11/22 15:01:18;;;;;;;9.75;7.00;;;6.50;99.90;;;;;;5079684;28;20229;-80
2021/11/22 15:03:45;;;;;;;9.82;8.32;;;6.50;99.90;;;;;;5080021;28;20264;-80
2021/11/22 15:06:30;;;;;;;8.65;7.70;;;6.50;99.90;;;;;;5080924;28;20442;-82
2021/11/22 15:09:04;;;;;;;8.23;7.35;;;6.40;99.90;;;;;;5080198;28;20205;-82
2021/11/22 15:11:40;;;;;;;10.57;8.23;;;6.40;99.90;;;;;;5080470;28;20709;-80
2021/11/22 15:14:42;;;;;;;9.82;7.35;;;6.50;99.90;;;;;;5079885;28;20268;-80
2021/11/22 15:17:11;;;;;;;7.68;6.97;;;6.50;99.90;;;;;;5073206;28;20209;-80
2021/11/22 15:19:41;;;;;;;8.82;7.93;;;6.50;99.90;;;;;;5080395;28;20209;-81
2021/11/22 15:22:11;;;;;;;10.02;7.00;;;6.50;99.90;;;;;;5079464;28;20233;-81
2021/11/22 15:24:39;;;;;;;7.25;6.55;;;6.40;99.90;;;;;;5080225;28;20205;-81
2021/11/22 15:27:10;;;;;;;8.73;7.57;;;6.20;99.90;;;;;;5080047;28;20562;-80
2021/11/22 15:29:37;;;;;;;7.30;6.60;;;6.30;99.90;;;;;;5080475;28;20235;-79
2021/11/22 15:32:07;;;;;;;8.65;6.30;;;6.10;99.90;;;;;;5080220;28;20232;-81
2021/11/22 15:34:35;;;;;;;9.88;7.80;;;6.10;99.90;;;;;;5080482;28;20205;-80
2021/11/22 15:37:03;;;;;;;8.73;7.30;;;6.00;99.90;;;;;;5080418;28;20208;-80
2021/11/22 15:39:33;;;;;;;8.77;7.20;;;6.00;99.90;;;;;;5080454;28;20209;-80
2021/11/22 15:42:01;;;;;;;7.70;6.55;;;6.00;99.90;;;;;;5080388;28;20227;-80
2021/11/22 15:44:30;;;;;;;5.25;4.75;;;6.00;99.90;;;;;;5081294;28;20642;-80
2021/11/22 15:46:57;;;;;;;7.13;6.50;;;5.80;99.90;;;;;;5080813;28;20213;-80
2021/11/22 15:49:25;;;;;;;8.57;6.13;;;5.90;99.90;;;;;;5079516;28;20250;-80
2021/11/22 15:51:52;;;;;;;6.82;5.80;;;5.70;99.90;;;;;;5081334;28;20243;-79
2021/11/22 15:54:19;;;;;;;6.63;6.03;;;5.80;99.90;;;;;;5080716;28;20227;-81
2021/11/22 15:56:47;;;;;;;5.65;5.18;;;5.80;99.90;;;;;;5080485;28;20216;-80
2021/11/22 15:59:15;;;;;;;7.30;5.43;;;5.70;99.90;;;;;;5080203;28;20219;-80
2021/11/22 16:01:44;;;;;;;7.88;6.20;;;5.80;99.90;;;;;;5080226;28;20233;-82
2021/11/22 16:04:11;;;;;;;6.95;5.55;;;5.70;99.90;;;;;;5079931;28;20197;-83
2021/11/22 16:06:40;;;;;;;8.02;5.55;;;5.70;99.90;;;;;;5079536;28;20209;-81
2021/11/22 16:09:10;;;;;;;8.35;6.30;;;5.80;99.90;;;;;;5080861;28;20801;-81
2021/11/22 16:11:37;;;;;;;6.35;5.72;;;5.80;99.90;;;;;;5080918;28;20316;-81
2021/11/22 16:14:04;;;;;;;6.40;5.78;;;6.00;99.90;;;;;;5080883;28;20232;-80
2021/11/22 16:16:31;;;;;;;5.85;5.35;;;6.00;99.90;;;;;;5080205;28;20208;-80
2021/11/22 16:18:59;;;;;;;6.20;5.70;;;6.10;99.90;;;;;;5081401;28;20851;-83
2021/11/22 16:21:26;;;;;;;5.50;5.00;;;5.90;99.90;;;;;;5080183;28;20229;-80
2021/11/22 16:23:52;;;;;;;5.93;5.38;;;5.90;99.90;;;;;;5080724;28;20972;-80
2021/11/22 16:26:19;;;;;;;5.60;5.00;;;5.90;99.90;;;;;;5080877;28;20565;-80
2021/11/22 16:28:46;;;;;;;5.35;4.75;;;5.80;99.90;;;;;;5083417;28;20208;-79
2021/11/22 16:31:13;;;;;;;4.78;4.38;;;5.80;99.90;;;;;;5085700;28;20229;-80
2021/11/22 16:33:40;;;;;;;5.57;4.85;;;5.80;99.90;;;;;;5080352;28;20256;-80
2021/11/22 16:36:08;;;;;;;4.88;4.38;;;5.90;99.90;;;;;;5080441;28;20291;-80
2021/11/22 16:38:36;;;;;;;4.80;4.40;;;5.80;99.90;;;;;;5081141;28;20209;-80
2021/11/22 16:41:04;;;;;;;6.05;5.28;;;5.90;99.90;;;;;;5080615;28;20224;-79
2021/11/22 16:43:31;;;;;;;5.28;4.55;;;5.80;99.90;;;;;;5079388;28;20201;-80
2021/11/22 16:45:58;;;;;;;6.88;4.47;;;5.70;99.90;;;;;;5079940;28;20212;-80
2021/11/22 16:48:25;;;;;;;5.93;5.22;;;5.70;99.90;;;;;;5079473;28;20598;-80
2021/11/22 16:50:53;;;;;;;4.55;3.90;;;5.70;99.90;;;;;;5079854;28;20201;-80
2021/11/22 16:53:21;;;;;;;4.90;4.40;;;5.60;99.90;;;;;;5078470;28;20229;-80